createdAt,value
2017-05-27T15:18:06.569Z,9.26
2017-05-27T15:20:34.328Z,1.64
2017-05-27T15:23:02.160Z,1.64
2017-05-27T15:25:29.730Z,2.24
2017-05-27T15:27:57.347Z,2.24
2017-05-27T15:30:25.980Z,2.04
2017-05-27T15:32:54.174Z,9.04
2017-05-27T15:35:22.671Z,4.12
2017-05-27T15:37:51.089Z,3.12
2017-05-27T15:40:18.675Z,3.40
2017-05-27T15:42:47.163Z,3.32
2017-05-27T15:45:14.998Z,3.76
2017-05-27T15:47:43.183Z,6.82
2017-05-27T15:50:11.662Z,3.48
2017-05-27T15:52:39.262Z,2.10
2017-05-27T15:55:07.189Z,4.52
2017-05-27T15:57:34.753Z,2.94
2017-05-27T16:00:02.565Z,7.34
2017-05-27T16:02:30.705Z,6.88
2017-05-27T16:04:59.103Z,3.08
2017-05-27T16:07:26.766Z,3.58
2017-05-27T16:09:54.852Z,3.10
2017-05-27T16:12:22.407Z,3.30
2017-05-27T16:14:50.228Z,9.14
2017-05-27T16:17:17.835Z,6.42
2017-05-27T16:19:46.142Z,3.46
2017-05-27T16:22:14.254Z,3.30
2017-05-27T16:24:41.876Z,7.16
2017-05-27T16:27:09.431Z,4.92
2017-05-27T16:29:37.037Z,2.80
2017-05-27T16:32:05.359Z,2.80
2017-05-27T16:34:32.920Z,2.74
2017-05-27T16:37:00.484Z,8.72
2017-05-27T16:39:28.093Z,3.04
2017-05-27T16:41:56.971Z,3.30
2017-05-27T16:44:25.489Z,3.10
2017-05-27T16:46:53.166Z,4.70
2017-05-27T16:49:20.769Z,6.44
2017-05-27T16:51:48.322Z,2.40
2017-05-27T16:54:15.943Z,3.84
2017-05-27T16:56:43.490Z,2.08
2017-05-27T16:59:11.426Z,5.44
2017-05-27T17:01:39.363Z,3.78
2017-05-27T17:04:07.108Z,3.84
2017-05-27T17:06:34.697Z,3.68
2017-05-27T17:09:03.279Z,8.68
2017-05-27T17:11:31.698Z,2.60
2017-05-27T17:13:59.423Z,4.92
2017-05-27T17:16:27.075Z,4.62
2017-05-27T17:18:54.685Z,3.48
2017-05-27T17:21:22.255Z,9.44
2017-05-27T17:23:49.868Z,6.78
2017-05-27T17:26:17.458Z,5.02
2017-05-27T17:28:45.022Z,3.42
2017-05-27T17:31:12.606Z,9.14
2017-05-27T17:33:40.162Z,4.30
2017-05-27T17:36:07.921Z,4.94
2017-05-27T17:38:35.585Z,9.48
2017-05-27T17:41:03.534Z,8.84
2017-05-27T17:43:31.078Z,5.24
2017-05-27T17:45:59.495Z,6.52
2017-05-27T17:48:27.048Z,6.24
2017-05-27T17:50:54.994Z,4.54
2017-05-27T17:53:22.595Z,6.36
2017-05-27T17:55:50.130Z,3.92
2017-05-27T17:58:17.666Z,2.94
2017-05-27T18:00:45.962Z,9.70
2017-05-27T18:03:13.496Z,6.04
2017-05-27T18:05:41.042Z,4.14
2017-05-27T18:08:08.615Z,6.24
2017-05-27T18:10:36.222Z,4.02
2017-05-27T18:13:03.874Z,2.36
2017-05-27T18:15:32.318Z,4.26
2017-05-27T18:17:59.873Z,5.36
2017-05-27T18:20:27.716Z,8.28
2017-05-27T18:22:55.296Z,6.64
2017-05-27T18:25:22.838Z,4.10
2017-05-27T18:27:50.402Z,5.50
2017-05-27T18:30:18.098Z,10.52
2017-05-27T18:32:45.638Z,9.30
2017-05-27T18:35:13.458Z,15.54
2017-05-27T18:37:41.081Z,12.48
2017-05-27T18:40:08.617Z,7.20
2017-05-27T18:42:36.181Z,21.50
2017-05-27T18:45:03.818Z,7.70
2017-05-27T18:47:31.382Z,17.62
2017-05-27T18:49:58.931Z,15.00
2017-05-27T18:52:26.544Z,11.40
2017-05-27T18:54:54.101Z,10.80
2017-05-27T18:57:21.658Z,10.20
2017-05-27T18:59:49.273Z,11.40
2017-05-27T19:02:16.893Z,12.84
2017-05-27T19:04:44.766Z,10.16
2017-05-27T19:07:12.831Z,12.36
2017-05-27T19:09:40.427Z,5.70
2017-05-27T19:12:08.831Z,12.16
2017-05-27T19:14:36.403Z,9.58
2017-05-27T19:17:04.859Z,6.44
2017-05-27T19:19:32.405Z,4.62
2017-05-27T19:21:59.975Z,6.28
2017-05-27T19:24:27.789Z,8.40
2017-05-27T19:26:55.377Z,3.98
2017-05-27T19:29:22.935Z,6.90
2017-05-27T19:31:50.514Z,8.68
2017-05-27T19:34:18.120Z,10.04
2017-05-27T19:36:45.667Z,7.70
2017-05-27T19:39:13.291Z,5.82
2017-05-27T19:41:40.862Z,11.08
2017-05-27T19:44:08.408Z,5.06
2017-05-27T19:46:36.014Z,6.68
2017-05-27T19:49:04.153Z,9.52
2017-05-27T19:51:31.767Z,12.76
2017-05-27T19:53:59.366Z,11.66
2017-05-27T19:56:27.155Z,9.42
2017-05-27T19:58:54.791Z,10.72
2017-05-27T20:01:22.545Z,8.54
2017-05-27T20:03:50.487Z,7.00
2017-05-27T20:06:18.155Z,3.04
2017-05-27T20:08:45.758Z,5.22
2017-05-27T20:11:13.319Z,3.86
2017-05-27T20:13:40.983Z,3.36
2017-05-27T20:16:08.582Z,5.10
2017-05-27T20:18:36.135Z,5.70
2017-05-27T20:21:03.700Z,12.14
2017-05-27T20:23:31.304Z,5.24
2017-05-27T20:25:59.142Z,9.06
2017-05-27T20:28:27.000Z,16.00
2017-05-27T20:30:54.734Z,9.18
2017-05-27T20:33:22.276Z,8.48
2017-05-27T20:35:50.040Z,6.60
2017-05-27T20:38:17.808Z,7.26
2017-05-27T20:40:45.749Z,7.38
2017-05-27T20:43:13.311Z,20.72
2017-05-27T20:45:40.918Z,11.20
2017-05-27T20:48:08.486Z,14.30
2017-05-27T20:50:36.057Z,20.48
2017-05-27T20:53:03.645Z,11.54
2017-05-27T20:55:31.189Z,7.76
2017-05-27T20:57:58.737Z,13.30
2017-05-27T21:00:26.466Z,16.44
2017-05-27T21:02:54.427Z,10.68
2017-05-27T21:05:21.988Z,15.52
2017-05-27T21:07:49.711Z,10.78
2017-05-27T21:10:17.310Z,14.38
2017-05-27T21:12:44.867Z,10.32
2017-05-27T21:15:12.459Z,8.68
2017-05-27T21:17:40.011Z,7.14
2017-05-27T21:20:07.567Z,11.70
2017-05-27T21:22:35.148Z,7.46
2017-05-27T21:25:03.022Z,12.92
2017-05-27T21:27:30.890Z,15.52
2017-05-27T21:29:58.515Z,10.64
2017-05-27T21:32:26.116Z,11.10
2017-05-27T21:34:53.978Z,11.04
2017-05-27T21:37:22.407Z,9.58
2017-05-27T21:39:50.054Z,12.18
2017-05-27T21:42:17.867Z,10.40
2017-05-27T21:44:45.718Z,9.22
2017-05-27T21:47:13.317Z,11.52
2017-05-27T21:49:40.872Z,8.54
2017-05-27T21:52:08.422Z,14.12
2017-05-27T21:54:36.041Z,11.54
2017-05-27T21:57:03.608Z,18.28
2017-05-27T21:59:31.638Z,15.66
2017-05-27T22:01:59.242Z,13.52
2017-05-27T22:04:26.794Z,13.28
2017-05-27T22:06:54.381Z,22.84
2017-05-27T22:09:21.973Z,17.36
2017-05-27T22:11:49.842Z,13.22
2017-05-27T22:14:17.703Z,13.12
2017-05-27T22:16:45.528Z,13.54
2017-05-27T22:19:13.264Z,10.04
2017-05-27T22:21:40.826Z,10.46
2017-05-27T22:24:08.414Z,7.06
2017-05-27T22:26:35.967Z,5.24
2017-05-27T22:29:03.522Z,3.84
2017-05-27T22:31:31.130Z,4.34
2017-05-27T22:33:58.673Z,3.92
2017-05-27T22:36:26.235Z,3.32
2017-05-27T22:38:53.823Z,3.32
2017-05-27T22:41:21.375Z,3.54
2017-05-27T22:43:49.652Z,3.78
2017-05-27T22:46:17.386Z,3.62
2017-05-27T22:48:44.936Z,3.64
2017-05-27T22:51:12.747Z,5.66
2017-05-27T22:53:40.344Z,4.20
2017-05-27T22:56:07.886Z,4.16
2017-05-27T22:58:35.498Z,3.30
2017-05-27T23:01:03.613Z,4.00
2017-05-27T23:03:31.158Z,3.62
2017-05-27T23:05:58.711Z,3.52
2017-05-27T23:08:26.296Z,4.76
2017-05-27T23:10:53.902Z,3.50
2017-05-27T23:13:21.451Z,3.10
2017-05-27T23:15:49.118Z,3.80
2017-05-27T23:18:17.008Z,5.38
2017-05-27T23:20:44.581Z,8.58
2017-05-27T23:23:12.204Z,3.54
2017-05-27T23:25:39.761Z,3.60
2017-05-27T23:28:07.355Z,4.34
2017-05-27T23:30:35.113Z,6.46
2017-05-27T23:33:02.653Z,4.94
2017-05-27T23:35:30.242Z,5.42
2017-05-27T23:37:58.964Z,6.74
2017-05-27T23:40:26.627Z,6.78
2017-05-27T23:42:54.326Z,6.02
2017-05-27T23:45:21.906Z,7.18
2017-05-27T23:47:49.686Z,5.88
2017-05-27T23:50:17.243Z,6.70
2017-05-27T23:52:44.866Z,7.56
2017-05-27T23:55:12.656Z,6.34
2017-05-27T23:57:40.199Z,6.50
